sensor_id;sensor_type;location;lat;lon;timestamp;pressure;altitude;pressure_sealevel;temperature;humidity
55755;BME280;41674;52.290;-1.474;2023-01-26T00:00:24;102450.36;;;3.82;81.06
55755;BME280;41674;52.290;-1.474;2023-01-26T00:02:53;102451.30;;;4.64;78.01
55755;BME280;41674;52.290;-1.474;2023-01-26T00:05:22;102447.26;;;4.74;77.50
55755;BME280;41674;52.290;-1.474;2023-01-26T00:07:52;102448.89;;;3.70;80.76
55755;BME280;41674;52.290;-1.474;2023-01-26T00:10:21;102446.31;;;3.77;80.42
55755;BME280;41674;52.290;-1.474;2023-01-26T00:12:51;102449.52;;;4.54;78.51
55755;BME280;41674;52.290;-1.474;2023-01-26T00:15:21;102447.47;;;0.97;88.03
55755;BME280;41674;52.290;-1.474;2023-01-26T00:17:50;102443.43;;;3.69;80.76
55755;BME280;41674;52.290;-1.474;2023-01-26T00:20:20;102447.46;;;4.24;79.03
55755;BME280;41674;52.290;-1.474;2023-01-26T00:22:50;102444.90;;;5.03;75.83
55755;BME280;41674;52.290;-1.474;2023-01-26T00:25:20;102446.99;;;3.60;80.08
55755;BME280;41674;52.290;-1.474;2023-01-26T00:27:49;102449.74;;;3.68;77.91
55755;BME280;41674;52.290;-1.474;2023-01-26T00:30:19;102444.05;;;4.01;76.98
55755;BME280;41674;52.290;-1.474;2023-01-26T00:32:49;102444.11;;;4.59;75.88
55755;BME280;41674;52.290;-1.474;2023-01-26T00:35:19;102447.42;;;3.81;76.20
55755;BME280;41674;52.290;-1.474;2023-01-26T00:37:48;102443.16;;;4.95;73.22
55755;BME280;41674;52.290;-1.474;2023-01-26T00:40:18;102443.23;;;4.74;72.73
55755;BME280;41674;52.290;-1.474;2023-01-26T00:42:52;102444.51;;;4.83;71.76
55755;BME280;41674;52.290;-1.474;2023-01-26T00:45:17;102440.42;;;4.89;71.12
55755;BME280;41674;52.290;-1.474;2023-01-26T00:47:47;102446.47;;;4.86;70.48
55755;BME280;41674;52.290;-1.474;2023-01-26T00:50:16;102450.31;;;4.51;70.61
55755;BME280;41674;52.290;-1.474;2023-01-26T00:52:45;102452.61;;;4.60;69.93
55755;BME280;41674;52.290;-1.474;2023-01-26T00:55:15;102458.48;;;4.83;70.34
55755;BME280;41674;52.290;-1.474;2023-01-26T00:57:44;102460.76;;;4.53;70.26
55755;BME280;41674;52.290;-1.474;2023-01-26T01:00:14;102457.20;;;4.45;70.62
55755;BME280;41674;52.290;-1.474;2023-01-26T01:02:43;102453.91;;;4.46;71.06
55755;BME280;41674;52.290;-1.474;2023-01-26T01:05:12;102452.51;;;3.60;74.45
55755;BME280;41674;52.290;-1.474;2023-01-26T01:07:42;102457.08;;;4.02;72.94
55755;BME280;41674;52.290;-1.474;2023-01-26T01:10:11;102455.93;;;3.01;77.95
55755;BME280;41674;52.290;-1.474;2023-01-26T01:12:41;102455.29;;;3.97;76.05
55755;BME280;41674;52.290;-1.474;2023-01-26T01:15:11;102452.04;;;3.77;77.46
55755;BME280;41674;52.290;-1.474;2023-01-26T01:17:41;102457.53;;;3.92;76.55
55755;BME280;41674;52.290;-1.474;2023-01-26T01:20:11;102462.81;;;4.12;76.34
55755;BME280;41674;52.290;-1.474;2023-01-26T01:22:40;102465.96;;;3.90;75.62
55755;BME280;41674;52.290;-1.474;2023-01-26T01:25:09;102463.20;;;3.98;75.17
55755;BME280;41674;52.290;-1.474;2023-01-26T01:27:39;102462.02;;;3.93;74.98
55755;BME280;41674;52.290;-1.474;2023-01-26T01:30:10;102460.75;;;3.77;75.06
55755;BME280;41674;52.290;-1.474;2023-01-26T01:32:37;102459.84;;;3.70;75.20
55755;BME280;41674;52.290;-1.474;2023-01-26T01:35:07;102463.36;;;3.65;75.28
55755;BME280;41674;52.290;-1.474;2023-01-26T01:37:36;102462.80;;;3.61;75.27
55755;BME280;41674;52.290;-1.474;2023-01-26T01:40:09;102461.87;;;3.65;75.16
55755;BME280;41674;52.290;-1.474;2023-01-26T01:42:35;102465.63;;;3.62;75.08
55755;BME280;41674;52.290;-1.474;2023-01-26T01:45:29;102464.89;;;3.39;75.65
55755;BME280;41674;52.290;-1.474;2023-01-26T01:47:33;102464.16;;;3.51;76.14
55755;BME280;41674;52.290;-1.474;2023-01-26T01:50:03;102459.75;;;3.47;76.07
55755;BME280;41674;52.290;-1.474;2023-01-26T01:52:32;102457.94;;;3.52;75.75
55755;BME280;41674;52.290;-1.474;2023-01-26T01:55:06;102458.16;;;3.45;75.37
55755;BME280;41674;52.290;-1.474;2023-01-26T01:57:35;102460.19;;;3.52;74.63
55755;BME280;41674;52.290;-1.474;2023-01-26T02:00:03;102468.17;;;3.68;74.51
55755;BME280;41674;52.290;-1.474;2023-01-26T02:02:30;102470.04;;;3.38;74.66
55755;BME280;41674;52.290;-1.474;2023-01-26T02:05:03;102470.77;;;3.02;75.99
55755;BME280;41674;52.290;-1.474;2023-01-26T02:07:30;102475.63;;;2.99;77.01
55755;BME280;41674;52.290;-1.474;2023-01-26T02:09:59;102475.54;;;1.45;81.44
55755;BME280;41674;52.290;-1.474;2023-01-26T02:12:30;102477.57;;;0.93;85.85
55755;BME280;41674;52.290;-1.474;2023-01-26T02:14:58;102478.41;;;1.98;82.40
55755;BME280;41674;52.290;-1.474;2023-01-26T02:17:27;102479.11;;;2.05;80.81
55755;BME280;41674;52.290;-1.474;2023-01-26T02:20:03;102481.15;;;2.32;79.51
55755;BME280;41674;52.290;-1.474;2023-01-26T02:22:35;102481.16;;;2.56;78.69
55755;BME280;41674;52.290;-1.474;2023-01-26T02:24:58;102482.78;;;2.53;78.24
55755;BME280;41674;52.290;-1.474;2023-01-26T02:27:26;102476.92;;;2.82;77.62
55755;BME280;41674;52.290;-1.474;2023-01-26T02:29:58;102475.17;;;2.79;77.17
55755;BME280;41674;52.290;-1.474;2023-01-26T02:32:25;102475.37;;;2.92;76.45
55755;BME280;41674;52.290;-1.474;2023-01-26T02:34:55;102476.52;;;2.76;76.75
55755;BME280;41674;52.290;-1.474;2023-01-26T02:37:25;102478.01;;;2.89;75.78
55755;BME280;41674;52.290;-1.474;2023-01-26T02:39:57;102482.54;;;2.70;75.83
55755;BME280;41674;52.290;-1.474;2023-01-26T02:42:24;102489.67;;;2.31;75.46
55755;BME280;41674;52.290;-1.474;2023-01-26T02:44:53;102493.26;;;2.77;76.12
55755;BME280;41674;52.290;-1.474;2023-01-26T02:47:23;102494.46;;;2.47;76.44
55755;BME280;41674;52.290;-1.474;2023-01-26T02:49:53;102497.05;;;2.25;78.14
55755;BME280;41674;52.290;-1.474;2023-01-26T02:52:24;102501.74;;;0.46;86.76
55755;BME280;41674;52.290;-1.474;2023-01-26T02:54:53;102500.16;;;1.93;84.12
55755;BME280;41674;52.290;-1.474;2023-01-26T02:57:22;102504.45;;;2.17;82.84
55755;BME280;41674;52.290;-1.474;2023-01-26T02:59:52;102503.33;;;2.03;82.13
55755;BME280;41674;52.290;-1.474;2023-01-26T03:02:21;102501.50;;;2.21;81.87
55755;BME280;41674;52.290;-1.474;2023-01-26T03:04:51;102496.75;;;2.60;80.71
55755;BME280;41674;52.290;-1.474;2023-01-26T03:07:21;102500.01;;;2.49;80.14
55755;BME280;41674;52.290;-1.474;2023-01-26T03:09:50;102496.90;;;2.75;80.13
55755;BME280;41674;52.290;-1.474;2023-01-26T03:12:20;102497.02;;;2.81;79.32
55755;BME280;41674;52.290;-1.474;2023-01-26T03:14:50;102494.70;;;2.51;79.04
55755;BME280;41674;52.290;-1.474;2023-01-26T03:17:20;102496.07;;;2.45;79.57
55755;BME280;41674;52.290;-1.474;2023-01-26T03:19:49;102490.68;;;2.67;80.16
55755;BME280;41674;52.290;-1.474;2023-01-26T03:22:19;102497.98;;;2.14;80.50
55755;BME280;41674;52.290;-1.474;2023-01-26T03:24:49;102504.28;;;1.24;85.35
55755;BME280;41674;52.290;-1.474;2023-01-26T03:27:19;102504.10;;;2.41;82.12
55755;BME280;41674;52.290;-1.474;2023-01-26T03:29:48;102500.14;;;2.80;80.47
55755;BME280;41674;52.290;-1.474;2023-01-26T03:32:18;102495.13;;;2.29;80.24
55755;BME280;41674;52.290;-1.474;2023-01-26T03:34:48;102489.29;;;3.12;78.95
55755;BME280;41674;52.290;-1.474;2023-01-26T03:37:18;102489.19;;;2.95;78.58
55755;BME280;41674;52.290;-1.474;2023-01-26T03:39:48;102493.81;;;2.71;78.89
55755;BME280;41674;52.290;-1.474;2023-01-26T03:42:17;102496.28;;;2.22;80.89
55755;BME280;41674;52.290;-1.474;2023-01-26T03:44:47;102495.88;;;2.09;83.05
55755;BME280;41674;52.290;-1.474;2023-01-26T03:47:17;102491.48;;;2.56;81.87
55755;BME280;41674;52.290;-1.474;2023-01-26T03:49:46;102499.20;;;2.87;80.39
55755;BME280;41674;52.290;-1.474;2023-01-26T03:52:16;102499.36;;;2.52;80.36
55755;BME280;41674;52.290;-1.474;2023-01-26T03:54:46;102496.85;;;2.63;80.33
55755;BME280;41674;52.290;-1.474;2023-01-26T03:57:16;102497.13;;;2.48;80.48
55755;BME280;41674;52.290;-1.474;2023-01-26T03:59:45;102498.65;;;2.41;80.92
55755;BME280;41674;52.290;-1.474;2023-01-26T04:02:15;102498.42;;;2.06;83.29
55755;BME280;41674;52.290;-1.474;2023-01-26T04:04:45;102503.83;;;2.43;80.91
55755;BME280;41674;52.290;-1.474;2023-01-26T04:07:15;102499.32;;;2.48;81.37
55755;BME280;41674;52.290;-1.474;2023-01-26T04:09:44;102499.72;;;2.78;79.86
55755;BME280;41674;52.290;-1.474;2023-01-26T04:12:14;102500.31;;;2.89;79.23
55755;BME280;41674;52.290;-1.474;2023-01-26T04:14:44;102503.92;;;2.95;78.48
55755;BME280;41674;52.290;-1.474;2023-01-26T04:17:14;102510.10;;;2.90;78.42
55755;BME280;41674;52.290;-1.474;2023-01-26T04:19:43;102514.96;;;2.42;79.29
55755;BME280;41674;52.290;-1.474;2023-01-26T04:22:13;102514.97;;;2.51;80.18
55755;BME280;41674;52.290;-1.474;2023-01-26T04:24:43;102514.41;;;2.43;80.94
55755;BME280;41674;52.290;-1.474;2023-01-26T04:27:12;102515.16;;;2.57;80.38
55755;BME280;41674;52.290;-1.474;2023-01-26T04:29:42;102513.46;;;2.39;80.11
55755;BME280;41674;52.290;-1.474;2023-01-26T04:32:12;102512.35;;;2.38;79.81
55755;BME280;41674;52.290;-1.474;2023-01-26T04:34:42;102518.04;;;2.15;79.95
55755;BME280;41674;52.290;-1.474;2023-01-26T04:37:11;102519.38;;;2.28;79.27
55755;BME280;41674;52.290;-1.474;2023-01-26T04:39:41;102522.32;;;2.11;79.38
55755;BME280;41674;52.290;-1.474;2023-01-26T04:42:11;102524.86;;;2.01;79.67
55755;BME280;41674;52.290;-1.474;2023-01-26T04:44:40;102531.48;;;2.10;79.89
55755;BME280;41674;52.290;-1.474;2023-01-26T04:47:11;102533.38;;;2.29;80.19
55755;BME280;41674;52.290;-1.474;2023-01-26T04:49:40;102532.30;;;2.48;79.43
55755;BME280;41674;52.290;-1.474;2023-01-26T04:52:09;102532.06;;;2.25;81.24
55755;BME280;41674;52.290;-1.474;2023-01-26T04:54:39;102534.25;;;1.30;85.19
55755;BME280;41674;52.290;-1.474;2023-01-26T04:57:09;102531.35;;;1.12;87.55
55755;BME280;41674;52.290;-1.474;2023-01-26T04:59:38;102536.52;;;0.33;91.97
55755;BME280;41674;52.290;-1.474;2023-01-26T05:02:08;102537.64;;;0.28;90.52
55755;BME280;41674;52.290;-1.474;2023-01-26T05:04:38;102525.57;;;1.72;86.34
55755;BME280;41674;52.290;-1.474;2023-01-26T05:07:08;102526.37;;;2.16;84.61
55755;BME280;41674;52.290;-1.474;2023-01-26T05:09:37;102525.58;;;1.71;85.44
55755;BME280;41674;52.290;-1.474;2023-01-26T05:12:07;102527.03;;;1.35;86.81
55755;BME280;41674;52.290;-1.474;2023-01-26T05:14:37;102525.85;;;1.17;88.37
55755;BME280;41674;52.290;-1.474;2023-01-26T05:17:06;102527.93;;;0.94;90.55
55755;BME280;41674;52.290;-1.474;2023-01-26T05:19:36;102530.93;;;1.28;89.85
55755;BME280;41674;52.290;-1.474;2023-01-26T05:22:06;102527.51;;;1.62;87.14
55755;BME280;41674;52.290;-1.474;2023-01-26T05:24:35;102528.94;;;1.74;85.05
55755;BME280;41674;52.290;-1.474;2023-01-26T05:27:05;102531.75;;;2.03;85.62
55755;BME280;41674;52.290;-1.474;2023-01-26T05:29:35;102528.59;;;2.69;82.93
55755;BME280;41674;52.290;-1.474;2023-01-26T05:32:05;102529.13;;;2.22;84.23
55755;BME280;41674;52.290;-1.474;2023-01-26T05:34:33;102521.56;;;2.61;83.51
55755;BME280;41674;52.290;-1.474;2023-01-26T05:37:04;102526.88;;;3.03;82.06
55755;BME280;41674;52.290;-1.474;2023-01-26T05:39:33;102529.87;;;2.44;83.23
55755;BME280;41674;52.290;-1.474;2023-01-26T05:42:03;102533.93;;;2.70;83.43
55755;BME280;41674;52.290;-1.474;2023-01-26T05:44:32;102535.07;;;2.65;83.20
55755;BME280;41674;52.290;-1.474;2023-01-26T05:47:02;102543.20;;;3.15;81.74
55755;BME280;41674;52.290;-1.474;2023-01-26T05:49:31;102544.10;;;2.51;83.32
55755;BME280;41674;52.290;-1.474;2023-01-26T05:52:01;102546.89;;;2.27;84.23
55755;BME280;41674;52.290;-1.474;2023-01-26T05:54:31;102553.03;;;2.80;82.63
55755;BME280;41674;52.290;-1.474;2023-01-26T05:57:01;102560.15;;;3.33;80.60
55755;BME280;41674;52.290;-1.474;2023-01-26T05:59:30;102557.95;;;3.01;80.73
55755;BME280;41674;52.290;-1.474;2023-01-26T06:02:00;102556.84;;;2.54;82.36
55755;BME280;41674;52.290;-1.474;2023-01-26T06:04:30;102559.48;;;2.57;83.97
55755;BME280;41674;52.290;-1.474;2023-01-26T06:06:59;102554.20;;;2.70;82.49
55755;BME280;41674;52.290;-1.474;2023-01-26T06:09:29;102554.51;;;3.13;80.82
55755;BME280;41674;52.290;-1.474;2023-01-26T06:11:58;102553.84;;;2.78;81.07
55755;BME280;41674;52.290;-1.474;2023-01-26T06:14:28;102551.23;;;3.42;78.83
55755;BME280;41674;52.290;-1.474;2023-01-26T06:16:58;102564.17;;;2.52;81.42
55755;BME280;41674;52.290;-1.474;2023-01-26T06:19:28;102562.73;;;3.11;80.55
55755;BME280;41674;52.290;-1.474;2023-01-26T06:21:58;102565.95;;;2.73;83.03
55755;BME280;41674;52.290;-1.474;2023-01-26T06:24:27;102568.89;;;3.10;81.48
55755;BME280;41674;52.290;-1.474;2023-01-26T06:26:56;102568.81;;;3.27;81.05
55755;BME280;41674;52.290;-1.474;2023-01-26T06:29:26;102570.21;;;3.68;80.55
55755;BME280;41674;52.290;-1.474;2023-01-26T06:31:56;102563.94;;;3.73;79.38
55755;BME280;41674;52.290;-1.474;2023-01-26T06:34:26;102568.46;;;3.62;79.02
55755;BME280;41674;52.290;-1.474;2023-01-26T06:36:55;102565.40;;;3.46;79.18
55755;BME280;41674;52.290;-1.474;2023-01-26T06:39:25;102569.38;;;3.60;78.00
55755;BME280;41674;52.290;-1.474;2023-01-26T06:41:55;102570.47;;;3.66;78.75
55755;BME280;41674;52.290;-1.474;2023-01-26T06:44:24;102567.20;;;4.05;77.61
55755;BME280;41674;52.290;-1.474;2023-01-26T06:46:54;102569.00;;;3.86;78.55
55755;BME280;41674;52.290;-1.474;2023-01-26T06:49:24;102576.36;;;3.98;78.28
55755;BME280;41674;52.290;-1.474;2023-01-26T06:51:58;102583.54;;;4.05;78.11
55755;BME280;41674;52.290;-1.474;2023-01-26T06:54:23;102586.64;;;4.28;77.23
55755;BME280;41674;52.290;-1.474;2023-01-26T06:56:53;102588.14;;;3.75;78.37
55755;BME280;41674;52.290;-1.474;2023-01-26T06:59:22;102592.45;;;4.09;77.45
55755;BME280;41674;52.290;-1.474;2023-01-26T07:01:52;102586.68;;;4.27;76.64
55755;BME280;41674;52.290;-1.474;2023-01-26T07:04:25;102588.97;;;4.35;76.59
55755;BME280;41674;52.290;-1.474;2023-01-26T07:06:52;102589.20;;;4.50;76.86
55755;BME280;41674;52.290;-1.474;2023-01-26T07:09:21;102590.51;;;4.61;76.89
55755;BME280;41674;52.290;-1.474;2023-01-26T07:11:51;102588.37;;;4.50;76.50
55755;BME280;41674;52.290;-1.474;2023-01-26T07:14:21;102595.15;;;4.65;75.94
55755;BME280;41674;52.290;-1.474;2023-01-26T07:16:50;102603.53;;;4.39;75.79
55755;BME280;41674;52.290;-1.474;2023-01-26T07:19:20;102603.95;;;4.35;75.88
55755;BME280;41674;52.290;-1.474;2023-01-26T07:21:49;102605.33;;;4.34;76.44
55755;BME280;41674;52.290;-1.474;2023-01-26T07:24:19;102612.41;;;4.67;76.05
55755;BME280;41674;52.290;-1.474;2023-01-26T07:26:49;102612.59;;;4.34;76.37
55755;BME280;41674;52.290;-1.474;2023-01-26T07:29:18;102614.63;;;4.53;75.92
55755;BME280;41674;52.290;-1.474;2023-01-26T07:31:48;102604.74;;;4.60;76.63
55755;BME280;41674;52.290;-1.474;2023-01-26T07:34:18;102595.26;;;4.71;76.61
55755;BME280;41674;52.290;-1.474;2023-01-26T07:36:50;102594.94;;;4.41;76.79
55755;BME280;41674;52.290;-1.474;2023-01-26T07:39:17;102597.53;;;4.76;76.71
55755;BME280;41674;52.290;-1.474;2023-01-26T07:41:48;102602.35;;;3.93;77.54
55755;BME280;41674;52.290;-1.474;2023-01-26T07:44:16;102605.09;;;4.46;76.54
55755;BME280;41674;52.290;-1.474;2023-01-26T07:46:46;102611.61;;;4.84;76.16
55755;BME280;41674;52.290;-1.474;2023-01-26T07:49:16;102614.24;;;4.66;76.14
55755;BME280;41674;52.290;-1.474;2023-01-26T07:51:46;102609.71;;;4.38;76.96
55755;BME280;41674;52.290;-1.474;2023-01-26T07:54:15;102607.78;;;4.12;77.83
55755;BME280;41674;52.290;-1.474;2023-01-26T07:56:45;102612.33;;;3.42;81.79
55755;BME280;41674;52.290;-1.474;2023-01-26T07:59:15;102612.11;;;3.23;82.10
55755;BME280;41674;52.290;-1.474;2023-01-26T08:01:44;102610.43;;;3.90;81.04
55755;BME280;41674;52.290;-1.474;2023-01-26T08:04:14;102613.54;;;4.43;79.09
55755;BME280;41674;52.290;-1.474;2023-01-26T08:06:44;102618.06;;;3.78;79.54
55755;BME280;41674;52.290;-1.474;2023-01-26T08:09:14;102622.95;;;4.26;78.24
55755;BME280;41674;52.290;-1.474;2023-01-26T08:11:43;102631.90;;;3.85;79.38
55755;BME280;41674;52.290;-1.474;2023-01-26T08:14:13;102631.38;;;4.51;77.77
55755;BME280;41674;52.290;-1.474;2023-01-26T08:16:43;102633.27;;;4.98;76.94
55755;BME280;41674;52.290;-1.474;2023-01-26T08:19:12;102626.60;;;4.69;77.26
55755;BME280;41674;52.290;-1.474;2023-01-26T08:21:42;102630.88;;;4.30;78.68
55755;BME280;41674;52.290;-1.474;2023-01-26T08:24:12;102639.07;;;2.80;84.77
55755;BME280;41674;52.290;-1.474;2023-01-26T08:26:42;102639.22;;;2.25;89.71
55755;BME280;41674;52.290;-1.474;2023-01-26T08:29:12;102643.83;;;1.60;91.31
55755;BME280;41674;52.290;-1.474;2023-01-26T08:31:41;102647.08;;;2.22;91.15
55755;BME280;41674;52.290;-1.474;2023-01-26T08:34:11;102651.45;;;2.54;89.76
55755;BME280;41674;52.290;-1.474;2023-01-26T08:36:40;102661.24;;;2.52;89.83
55755;BME280;41674;52.290;-1.474;2023-01-26T08:39:10;102660.54;;;2.28;91.36
55755;BME280;41674;52.290;-1.474;2023-01-26T08:41:40;102659.16;;;2.21;90.74
55755;BME280;41674;52.290;-1.474;2023-01-26T08:44:10;102655.53;;;2.69;89.48
55755;BME280;41674;52.290;-1.474;2023-01-26T08:46:39;102661.42;;;3.17;88.75
55755;BME280;41674;52.290;-1.474;2023-01-26T08:49:09;102659.04;;;2.78;88.56
55755;BME280;41674;52.290;-1.474;2023-01-26T08:51:38;102666.18;;;1.90;92.80
55755;BME280;41674;52.290;-1.474;2023-01-26T08:54:08;102675.26;;;1.62;96.26
55755;BME280;41674;52.290;-1.474;2023-01-26T08:56:38;102675.98;;;1.94;95.82
55755;BME280;41674;52.290;-1.474;2023-01-26T08:59:08;102672.46;;;0.97;99.50
55755;BME280;41674;52.290;-1.474;2023-01-26T09:01:37;102667.54;;;0.99;100.00
55755;BME280;41674;52.290;-1.474;2023-01-26T09:04:07;102666.97;;;-0.19;100.00
55755;BME280;41674;52.290;-1.474;2023-01-26T09:06:37;102664.39;;;0.30;100.00
55755;BME280;41674;52.290;-1.474;2023-01-26T09:11:36;102664.32;;;0.98;100.00
55755;BME280;41674;52.290;-1.474;2023-01-26T09:14:06;102666.19;;;1.00;100.00
55755;BME280;41674;52.290;-1.474;2023-01-26T09:16:35;102666.18;;;0.88;100.00
55755;BME280;41674;52.290;-1.474;2023-01-26T09:19:05;102668.98;;;0.61;100.00
55755;BME280;41674;52.290;-1.474;2023-01-26T09:21:34;102671.11;;;1.06;100.00
55755;BME280;41674;52.290;-1.474;2023-01-26T09:24:05;102669.30;;;1.07;100.00
55755;BME280;41674;52.290;-1.474;2023-01-26T09:26:33;102668.88;;;1.13;100.00
55755;BME280;41674;52.290;-1.474;2023-01-26T09:29:03;102672.90;;;1.66;100.00
55755;BME280;41674;52.290;-1.474;2023-01-26T09:31:32;102668.15;;;1.09;100.00
55755;BME280;41674;52.290;-1.474;2023-01-26T09:34:02;102672.89;;;0.77;100.00
55755;BME280;41674;52.290;-1.474;2023-01-26T09:36:32;102670.41;;;0.94;100.00
55755;BME280;41674;52.290;-1.474;2023-01-26T09:39:02;102672.38;;;0.64;100.00
55755;BME280;41674;52.290;-1.474;2023-01-26T09:41:44;102669.44;;;0.65;100.00
55755;BME280;41674;52.290;-1.474;2023-01-26T09:44:04;102670.14;;;0.91;100.00
55755;BME280;41674;52.290;-1.474;2023-01-26T09:46:39;102676.44;;;1.27;100.00
55755;BME280;41674;52.290;-1.474;2023-01-26T09:49:06;102679.14;;;0.84;100.00
55755;BME280;41674;52.290;-1.474;2023-01-26T09:51:34;102680.32;;;1.55;100.00
55755;BME280;41674;52.290;-1.474;2023-01-26T09:54:04;102678.61;;;1.65;100.00
55755;BME280;41674;52.290;-1.474;2023-01-26T09:56:31;102680.54;;;0.64;100.00
55755;BME280;41674;52.290;-1.474;2023-01-26T09:59:03;102685.06;;;1.21;100.00
55755;BME280;41674;52.290;-1.474;2023-01-26T10:01:36;102687.56;;;1.13;100.00
55755;BME280;41674;52.290;-1.474;2023-01-26T10:04:03;102687.46;;;1.46;100.00
55755;BME280;41674;52.290;-1.474;2023-01-26T10:06:29;102689.73;;;1.26;100.00
55755;BME280;41674;52.290;-1.474;2023-01-26T10:09:00;102693.95;;;1.54;100.00
55755;BME280;41674;52.290;-1.474;2023-01-26T10:11:30;102692.29;;;2.01;100.00
55755;BME280;41674;52.290;-1.474;2023-01-26T10:14:00;102692.46;;;2.48;100.00
55755;BME280;41674;52.290;-1.474;2023-01-26T10:16:26;102691.69;;;1.34;100.00
55755;BME280;41674;52.290;-1.474;2023-01-26T10:19:01;102692.29;;;1.78;100.00
55755;BME280;41674;52.290;-1.474;2023-01-26T10:21:30;102698.86;;;1.31;100.00
55755;BME280;41674;52.290;-1.474;2023-01-26T10:23:59;102695.16;;;2.38;100.00
55755;BME280;41674;52.290;-1.474;2023-01-26T10:26:30;102692.70;;;2.43;100.00
55755;BME280;41674;52.290;-1.474;2023-01-26T10:28:55;102696.57;;;2.30;100.00
55755;BME280;41674;52.290;-1.474;2023-01-26T10:31:27;102698.98;;;2.25;100.00
55755;BME280;41674;52.290;-1.474;2023-01-26T10:33:57;102692.64;;;2.84;100.00
55755;BME280;41674;52.290;-1.474;2023-01-26T10:36:23;102698.85;;;2.68;100.00
55755;BME280;41674;52.290;-1.474;2023-01-26T10:38:53;102704.53;;;3.04;100.00
55755;BME280;41674;52.290;-1.474;2023-01-26T10:41:25;102711.09;;;2.23;100.00
55755;BME280;41674;52.290;-1.474;2023-01-26T10:43:54;102705.21;;;1.77;100.00
55755;BME280;41674;52.290;-1.474;2023-01-26T10:46:30;102706.39;;;1.78;100.00
55755;BME280;41674;52.290;-1.474;2023-01-26T10:48:57;102711.84;;;1.60;100.00
55755;BME280;41674;52.290;-1.474;2023-01-26T10:51:29;102712.80;;;1.91;100.00
55755;BME280;41674;52.290;-1.474;2023-01-26T10:56:20;102717.74;;;2.21;100.00
55755;BME280;41674;52.290;-1.474;2023-01-26T10:58:53;102705.48;;;2.85;100.00
55755;BME280;41674;52.290;-1.474;2023-01-26T11:01:19;102714.05;;;2.20;100.00
55755;BME280;41674;52.290;-1.474;2023-01-26T11:04:03;102715.30;;;2.56;100.00
55755;BME280;41674;52.290;-1.474;2023-01-26T11:06:19;102715.24;;;2.06;100.00
55755;BME280;41674;52.290;-1.474;2023-01-26T11:08:48;102709.31;;;2.51;100.00
55755;BME280;41674;52.290;-1.474;2023-01-26T11:11:24;102705.32;;;2.69;100.00
55755;BME280;41674;52.290;-1.474;2023-01-26T11:16:23;102703.15;;;3.41;100.00
55755;BME280;41674;52.290;-1.474;2023-01-26T11:18:52;102698.64;;;3.08;100.00
55755;BME280;41674;52.290;-1.474;2023-01-26T11:21:19;102695.03;;;3.15;100.00
55755;BME280;41674;52.290;-1.474;2023-01-26T11:23:52;102697.10;;;3.01;100.00
55755;BME280;41674;52.290;-1.474;2023-01-26T11:26:29;102699.79;;;2.99;100.00
55755;BME280;41674;52.290;-1.474;2023-01-26T11:28:54;102696.36;;;3.00;100.00
55755;BME280;41674;52.290;-1.474;2023-01-26T11:31:22;102695.89;;;2.65;100.00
55755;BME280;41674;52.290;-1.474;2023-01-26T11:33:53;102696.52;;;2.52;100.00
55755;BME280;41674;52.290;-1.474;2023-01-26T11:36:21;102701.51;;;3.10;100.00
55755;BME280;41674;52.290;-1.474;2023-01-26T11:38:45;102699.03;;;2.87;100.00
55755;BME280;41674;52.290;-1.474;2023-01-26T11:41:22;102696.75;;;2.96;100.00
55755;BME280;41674;52.290;-1.474;2023-01-26T11:43:54;102695.80;;;2.77;100.00
55755;BME280;41674;52.290;-1.474;2023-01-26T11:46:24;102691.78;;;2.96;100.00
55755;BME280;41674;52.290;-1.474;2023-01-26T11:48:51;102686.70;;;3.05;100.00
55755;BME280;41674;52.290;-1.474;2023-01-26T11:51:19;102693.38;;;2.62;100.00
55755;BME280;41674;52.290;-1.474;2023-01-26T11:53:56;102693.45;;;3.34;100.00
55755;BME280;41674;52.290;-1.474;2023-01-26T11:56:20;102689.80;;;4.12;100.00
55755;BME280;41674;52.290;-1.474;2023-01-26T11:58:45;102691.30;;;3.57;100.00
55755;BME280;41674;52.290;-1.474;2023-01-26T12:01:15;102691.22;;;3.34;100.00
55755;BME280;41674;52.290;-1.474;2023-01-26T12:03:44;102683.24;;;4.59;100.00
55755;BME280;41674;52.290;-1.474;2023-01-26T12:06:16;102681.55;;;4.22;100.00
55755;BME280;41674;52.290;-1.474;2023-01-26T12:08:41;102682.39;;;3.60;100.00
55755;BME280;41674;52.290;-1.474;2023-01-26T12:13:41;102679.70;;;3.97;100.00
55755;BME280;41674;52.290;-1.474;2023-01-26T12:16:14;102670.64;;;3.62;100.00
55755;BME280;41674;52.290;-1.474;2023-01-26T12:18:42;102671.98;;;3.70;100.00
55755;BME280;41674;52.290;-1.474;2023-01-26T12:23:43;102666.56;;;4.23;98.00
55755;BME280;41674;52.290;-1.474;2023-01-26T12:26:10;102670.37;;;3.79;100.00
55755;BME280;41674;52.290;-1.474;2023-01-26T12:28:42;102671.16;;;3.70;100.00
55755;BME280;41674;52.290;-1.474;2023-01-26T12:31:12;102670.44;;;4.57;97.55
55755;BME280;41674;52.290;-1.474;2023-01-26T12:33:35;102668.43;;;4.18;98.12
55755;BME280;41674;52.290;-1.474;2023-01-26T12:36:16;102665.12;;;4.70;96.12
55755;BME280;41674;52.290;-1.474;2023-01-26T12:38:43;102662.67;;;5.13;93.15
55755;BME280;41674;52.290;-1.474;2023-01-26T12:41:11;102655.52;;;4.48;94.21
55755;BME280;41674;52.290;-1.474;2023-01-26T12:43:42;102662.31;;;5.35;92.26
55755;BME280;41674;52.290;-1.474;2023-01-26T12:46:05;102663.81;;;5.45;89.90
55755;BME280;41674;52.290;-1.474;2023-01-26T12:48:37;102656.11;;;4.81;92.24
55755;BME280;41674;52.290;-1.474;2023-01-26T12:51:07;102658.25;;;5.72;90.58
55755;BME280;41674;52.290;-1.474;2023-01-26T12:53:40;102658.30;;;5.34;94.39
55755;BME280;41674;52.290;-1.474;2023-01-26T12:56:08;102659.41;;;5.35;91.83
55755;BME280;41674;52.290;-1.474;2023-01-26T12:58:34;102655.89;;;5.18;91.73
55755;BME280;41674;52.290;-1.474;2023-01-26T13:01:03;102658.01;;;5.11;91.78
55755;BME280;41674;52.290;-1.474;2023-01-26T13:03:32;102658.94;;;5.30;92.79
55755;BME280;41674;52.290;-1.474;2023-01-26T13:06:01;102652.43;;;5.00;92.72
55755;BME280;41674;52.290;-1.474;2023-01-26T13:11:00;102643.77;;;4.48;100.00
55755;BME280;41674;52.290;-1.474;2023-01-26T13:13:31;102639.56;;;4.95;97.87